Time;durP1;ratioP1;P1;durP2;ratioP2;P2;SDS_P1;SDS_P2;PMS_P1;PMS_P2;Temp;Humidity;BMP_temperature;BMP_pressure;BME280_temperature;BME280_humidity;BME280_pressure;Samples;Min_cycle;Max_cycle;Signal;HPM_P1;HPM_P2
2021/10/14 00:00:39;;;;;;;14.07;8.02;;;;;;;10.12;100.00;102468.69;10583431;28;20427;-60
2021/10/14 00:05:41;;;;;;;18.67;10.32;;;;;;;10.07;100.00;102473.22;10565875;28;20079;-61
2021/10/14 00:10:44;;;;;;;20.25;12.48;;;;;;;9.99;100.00;102485.66;10582334;28;20051;-61
2021/10/14 00:15:46;;;;;;;20.40;13.70;;;;;;;9.98;100.00;102463.84;10583072;28;20383;-61
2021/10/14 00:20:48;;;;;;;14.77;10.90;;;;;;;10.08;100.00;102463.59;10582675;28;20055;-60
2021/10/14 00:25:51;;;;;;;21.55;12.40;;;;;;;10.04;100.00;102455.81;10565118;28;20051;-60
2021/10/14 00:30:53;;;;;;;17.70;12.13;;;;;;;10.07;100.00;102461.84;10582361;28;20051;-61
2021/10/14 00:35:56;;;;;;;15.45;11.93;;;;;;;10.03;100.00;102453.25;10583207;28;20051;-61
2021/10/14 00:40:58;;;;;;;16.55;12.52;;;;;;;10.18;100.00;102454.56;10582172;28;20086;-60
2021/10/14 00:46:00;;;;;;;21.25;14.65;;;;;;;10.13;100.00;102446.00;10564689;28;20040;-60
2021/10/14 00:51:03;;;;;;;26.48;19.38;;;;;;;10.10;100.00;102444.31;10582128;28;20051;-60
2021/10/14 00:56:08;;;;;;;19.25;15.27;;;;;;;10.22;100.00;102446.59;10581937;28;20429;-60
2021/10/14 01:01:11;;;;;;;24.50;18.20;;;;;;;10.29;100.00;102434.16;10581506;28;20073;-60
2021/10/14 01:06:13;;;;;;;28.25;19.60;;;;;;;10.21;100.00;102430.91;10581827;28;20134;-61
2021/10/14 01:11:16;;;;;;;25.88;20.85;;;;;;;10.11;100.00;102438.19;10581470;28;20058;-60
2021/10/14 01:16:18;;;;;;;30.08;22.48;;;;;;;10.12;100.00;102431.19;10581578;28;20047;-60
2021/10/14 01:21:20;;;;;;;24.73;17.85;;;;;;;10.32;100.00;102422.75;10583975;28;20040;-61
2021/10/14 01:26:23;;;;;;;34.28;24.05;;;;;;;10.29;100.00;102421.09;10589759;28;20046;-60
2021/10/14 01:31:26;;;;;;;37.58;25.33;;;;;;;10.31;100.00;102416.66;10589365;28;20047;-61
2021/10/14 01:36:29;;;;;;;37.65;28.00;;;;;;;10.25;100.00;102413.34;10589309;28;20475;-60
2021/10/14 01:41:31;;;;;;;45.20;27.60;;;;;;;10.22;100.00;102411.69;10588946;28;20051;-60
2021/10/14 01:46:33;;;;;;;39.03;28.33;;;;;;;10.33;100.00;102414.88;10589748;28;20044;-61
2021/10/14 01:51:36;;;;;;;39.15;27.27;;;;;;;10.40;100.00;102411.16;10588558;28;20065;-61
2021/10/14 01:56:38;;;;;;;44.17;30.17;;;;;;;10.35;100.00;102415.66;10588696;28;20050;-60
2021/10/14 02:01:40;;;;;;;40.72;29.02;;;;;;;10.41;100.00;102406.78;10570321;28;20050;-61
2021/10/14 02:06:43;;;;;;;26.27;20.58;;;;;;;10.48;100.00;102403.06;10588848;28;20047;-61
2021/10/14 02:11:45;;;;;;;43.80;31.83;;;;;;;10.49;100.00;102403.91;10588121;28;20051;-61
2021/10/14 02:16:48;;;;;;;39.95;27.67;;;;;;;10.47;100.00;102400.50;10587790;28;20454;-61
2021/10/14 02:21:50;;;;;;;50.22;35.10;;;;;;;10.47;100.00;102398.72;10588076;28;20083;-61
2021/10/14 02:26:52;;;;;;;43.72;30.85;;;;;;;10.51;100.00;102402.13;10587836;28;20043;-61
2021/10/14 02:31:55;;;;;;;62.00;38.78;;;;;;;10.56;100.00;102402.84;10586108;28;20478;-61
2021/10/14 02:36:57;;;;;;;54.58;33.88;;;;;;;10.65;100.00;102394.66;10587394;28;20048;-61
2021/10/14 02:41:59;;;;;;;62.08;41.80;;;;;;;10.56;100.00;102395.81;10568727;28;20058;-61
2021/10/14 02:47:02;;;;;;;45.72;34.15;;;;;;;10.68;100.00;102401.59;10587331;28;20122;-61
2021/10/14 02:52:05;;;;;;;60.45;36.47;;;;;;;10.72;100.00;102397.94;10586159;28;20487;-61
2021/10/14 02:57:07;;;;;;;57.22;37.80;;;;;;;10.65;100.00;102397.28;10568595;28;20044;-61
2021/10/14 03:02:10;;;;;;;52.67;35.50;;;;;;;10.70;100.00;102387.53;10585787;28;20058;-61
2021/10/14 03:07:12;;;;;;;54.70;36.33;;;;;;;10.58;100.00;102388.78;10585808;28;20505;-61
2021/10/14 03:12:14;;;;;;;54.38;38.20;;;;;;;10.66;100.00;102395.50;10585920;28;20051;-61
2021/10/14 03:17:17;;;;;;;50.97;37.10;;;;;;;10.71;100.00;102386.63;10585278;28;20050;-60
2021/10/14 03:22:19;;;;;;;49.20;36.50;;;;;;;10.69;100.00;102380.59;10585211;28;20055;-60
2021/10/14 03:27:24;;;;;;;51.15;36.33;;;;;;;10.72;100.00;102377.84;10584976;28;20482;-60
2021/10/14 03:32:26;;;;;;;55.28;39.67;;;;;;;10.67;100.00;102378.91;10584548;28;20054;-61
2021/10/14 03:37:28;;;;;;;65.30;43.72;;;;;;;10.61;100.00;102385.22;10584470;28;20048;-61
2021/10/14 03:42:31;;;;;;;61.53;43.20;;;;;;;10.55;100.00;102378.38;10584113;28;20051;-61
2021/10/14 03:47:33;;;;;;;56.33;40.90;;;;;;;10.69;100.00;102380.59;10549103;28;20044;-61
2021/10/14 03:52:36;;;;;;;50.75;38.47;;;;;;;10.79;100.00;102370.63;10583847;28;20047;-61
2021/10/14 03:57:38;;;;;;;47.65;37.05;;;;;;;10.73;100.00;102374.31;10583947;28;20049;-60
2021/10/14 04:02:41;;;;;;;49.45;37.15;;;;;;;10.74;100.00;102368.19;10565537;28;20044;-60
2021/10/14 04:07:43;;;;;;;51.95;38.60;;;;;;;10.76;100.00;102369.00;10583469;28;20119;-60
2021/10/14 04:12:45;;;;;;;58.28;38.50;;;;;;;10.78;100.00;102376.81;10583095;28;20395;-62
2021/10/14 04:17:48;;;;;;;55.35;39.70;;;;;;;10.74;100.00;102368.19;10565660;28;20047;-60
2021/10/14 04:22:51;;;;;;;53.90;35.97;;;;;;;10.76;100.00;102355.03;10582747;28;20096;-61
2021/10/14 04:27:53;;;;;;;46.78;34.22;;;;;;;10.81;100.00;102349.63;10582522;28;20475;-60
2021/10/14 04:32:56;;;;;;;46.08;34.72;;;;;;;10.74;100.00;102334.13;10582254;28;20073;-60
2021/10/14 04:37:58;;;;;;;46.22;32.47;;;;;;;10.81;100.00;102326.94;10564245;28;20394;-60
2021/10/14 04:43:01;;;;;;;53.75;36.20;;;;;;;10.89;100.00;102330.16;10564510;28;20043;-61
2021/10/14 04:48:03;;;;;;;52.80;35.08;;;;;;;10.83;100.00;102335.59;10582400;28;20051;-61
2021/10/14 04:53:05;;;;;;;49.60;35.58;;;;;;;10.80;100.00;102337.44;10582125;28;20048;-61
2021/10/14 04:58:08;;;;;;;37.78;29.80;;;;;;;10.90;100.00;102337.06;10563339;28;20052;-60
2021/10/14 05:03:10;;;;;;;43.30;29.35;;;;;;;10.94;100.00;102357.03;10563809;28;20056;-60
2021/10/14 05:08:13;;;;;;;39.78;28.83;;;;;;;11.04;100.00;102367.19;10581716;28;20075;-61
2021/10/14 05:13:16;;;;;;;43.33;29.85;;;;;;;10.90;100.00;102363.28;10563670;28;20044;-61
2021/10/14 05:18:18;;;;;;;40.03;27.77;;;;;;;11.03;100.00;102361.09;10581442;28;20055;-61
2021/10/14 05:23:20;;;;;;;40.60;27.98;;;;;;;10.96;100.00;102362.19;10581190;28;20056;-61
2021/10/14 05:28:23;;;;;;;40.63;28.15;;;;;;;10.96;100.00;102364.81;10581373;28;20129;-61
2021/10/14 05:33:26;;;;;;;47.13;33.97;;;;;;;10.88;100.00;102367.72;10563052;28;20056;-61
2021/10/14 05:38:28;;;;;;;44.97;30.65;;;;;;;10.96;100.00;102363.09;10581941;28;20054;-61
2021/10/14 05:43:30;;;;;;;51.08;31.80;;;;;;;10.84;100.00;102368.72;10581057;28;20052;-60
2021/10/14 05:48:34;;;;;;;46.97;34.45;;;;;;;10.90;100.00;102371.13;10580901;28;20056;-60
2021/10/14 05:53:37;;;;;;;58.90;37.67;;;;;;;10.83;100.00;102364.41;10581092;28;20063;-59
2021/10/14 05:58:39;;;;;;;44.50;32.45;;;;;;;10.77;100.00;102354.13;10580859;28;20051;-58
2021/10/14 06:03:41;;;;;;;47.05;31.63;;;;;;;10.73;100.00;102361.22;10580625;28;20479;-59
2021/10/14 06:08:44;;;;;;;48.97;37.08;;;;;;;10.81;100.00;102365.34;10583026;28;20509;-59
2021/10/14 06:13:46;;;;;;;47.28;32.40;;;;;;;10.89;100.00;102356.34;10588279;28;20044;-59
2021/10/14 06:18:48;;;;;;;62.13;40.53;;;;;;;10.82;100.00;102360.06;10587733;28;20500;-59
2021/10/14 06:23:51;;;;;;;56.67;41.08;;;;;;;10.78;100.00;102358.47;10587460;28;20043;-58
2021/10/14 06:28:53;;;;;;;62.55;41.15;;;;;;;10.82;100.00;102346.97;10587507;28;20044;-59
2021/10/14 06:33:55;;;;;;;60.70;42.55;;;;;;;11.01;100.00;102354.19;10587300;28;20044;-59
2021/10/14 06:38:58;;;;;;;64.28;42.55;;;;;;;10.88;100.00;102351.16;10587056;28;20054;-58
2021/10/14 06:44:00;;;;;;;62.85;41.45;;;;;;;11.02;100.00;102355.91;10587180;28;20145;-59
2021/10/14 06:49:03;;;;;;;83.03;48.88;;;;;;;10.97;100.00;102359.53;10586868;28;20044;-59
2021/10/14 06:54:05;;;;;;;66.00;42.58;;;;;;;11.03;100.00;102353.25;10586291;28;20412;-59
2021/10/14 06:59:07;;;;;;;61.63;41.53;;;;;;;11.11;100.00;102347.72;10586012;28;20051;-59
2021/10/14 07:04:10;;;;;;;65.55;42.45;;;;;;;11.00;100.00;102347.25;10585831;28;20058;-58
2021/10/14 07:09:12;;;;;;;75.80;45.42;;;;;;;11.07;100.00;102354.00;10585816;28;20048;-59
2021/10/14 07:14:14;;;;;;;57.83;38.95;;;;;;;11.20;100.00;102354.44;10585991;28;20043;-58
2021/10/14 07:19:17;;;;;;;66.18;43.17;;;;;;;11.27;100.00;102350.69;10584897;28;20047;-59
2021/10/14 07:24:19;;;;;;;75.82;45.83;;;;;;;11.12;100.00;102350.28;10585687;28;20048;-59
2021/10/14 07:29:22;;;;;;;79.53;45.25;;;;;;;11.16;100.00;102337.94;10585007;28;20055;-58
2021/10/14 07:34:25;;;;;;;74.72;47.15;;;;;;;11.23;100.00;102342.06;10585342;28;20044;-58
2021/10/14 07:39:27;;;;;;;73.18;45.15;;;;;;;11.32;100.00;102348.75;10566532;28;20048;-59
2021/10/14 07:44:30;;;;;;;62.63;42.72;;;;;;;11.27;100.00;102350.69;10584467;28;20051;-58
2021/10/14 07:49:32;;;;;;;73.95;46.92;;;;;;;11.26;100.00;102351.56;10584031;28;20043;-58
2021/10/14 07:54:34;;;;;;;59.60;40.75;;;;;;;11.27;100.00;102355.91;10584065;28;20078;-59
2021/10/14 07:59:37;;;;;;;61.47;42.90;;;;;;;11.33;100.00;102356.56;10583852;28;20079;-59
2021/10/14 08:04:39;;;;;;;77.88;48.92;;;;;;;11.42;100.00;102362.38;10583491;28;20506;-59
2021/10/14 08:09:42;;;;;;;65.38;42.95;;;;;;;11.47;100.00;102356.06;10583399;28;20058;-59
2021/10/14 08:14:44;;;;;;;74.60;46.97;;;;;;;11.59;100.00;102357.38;10583431;28;20044;-59
2021/10/14 08:19:46;;;;;;;60.15;43.22;;;;;;;11.68;100.00;102354.41;10582798;28;20441;-59
2021/10/14 08:24:49;;;;;;;62.88;43.58;;;;;;;11.66;100.00;102361.47;10582787;28;20039;-59
2021/10/14 08:29:51;;;;;;;50.50;36.42;;;;;;;11.60;100.00;102360.84;10581804;28;20055;-59
2021/10/14 08:34:55;;;;;;;62.10;41.72;;;;;;;11.63;100.00;102365.97;10582274;28;20058;-58
2021/10/14 08:39:57;;;;;;;50.67;37.60;;;;;;;11.78;100.00;102360.16;10582201;28;20048;-59
2021/10/14 08:45:06;;;;;;;51.08;35.80;;;;;;;11.80;100.00;102353.09;10582315;28;20040;-58
2021/10/14 08:50:10;;;;;;;56.83;38.47;;;;;;;11.92;100.00;102348.31;10582231;28;20048;-59
2021/10/14 08:55:12;;;;;;;57.30;36.65;;;;;;;11.84;100.00;102348.59;10581947;28;20058;-59
2021/10/14 09:00:14;;;;;;;65.25;40.28;;;;;;;11.92;100.00;102351.81;10581292;28;20509;-59
2021/10/14 09:05:17;;;;;;;47.30;32.97;;;;;;;12.16;100.00;102350.00;10581838;28;20054;-59
2021/10/14 09:10:19;;;;;;;46.30;32.97;;;;;;;12.09;100.00;102340.66;10581750;28;20048;-59
2021/10/14 09:15:24;;;;;;;47.10;34.30;;;;;;;12.15;100.00;102344.81;10581969;28;20126;-59
2021/10/14 09:20:34;;;;;;;51.58;37.10;;;;;;;12.33;100.00;102332.72;10581210;28;20510;-59
2021/10/14 09:25:45;;;;;;;53.17;39.40;;;;;;;12.49;100.00;102338.19;10581919;28;20044;-59
2021/10/14 09:30:58;;;;;;;50.88;36.15;;;;;;;12.60;100.00;102333.34;10581171;28;20371;-59
2021/10/14 09:36:28;;;;;;;49.17;30.13;;;;;;;12.46;100.00;102326.06;10581384;28;20055;-60
2021/10/14 09:41:41;;;;;;;47.88;34.00;;;;;;;12.51;100.00;102325.84;10582288;28;20072;-62
2021/10/14 09:46:46;;;;;;;49.10;30.83;;;;;;;12.57;100.00;102326.44;10589549;28;20047;-61
2021/10/14 09:51:48;;;;;;;44.53;30.95;;;;;;;12.70;100.00;102320.69;10589034;28;20044;-59
2021/10/14 09:56:51;;;;;;;55.38;35.95;;;;;;;12.70;100.00;102323.31;10589022;28;20043;-61
2021/10/14 10:01:56;;;;;;;47.03;31.10;;;;;;;12.72;100.00;102321.47;10588253;28;20097;-59
2021/10/14 10:07:00;;;;;;;44.33;31.88;;;;;;;12.62;100.00;102311.38;10588443;28;20093;-59
2021/10/14 10:12:08;;;;;;;46.45;33.00;;;;;;;12.83;100.00;102317.47;10570995;28;20075;-59
2021/10/14 10:17:14;;;;;;;47.63;36.83;;;;;;;13.22;100.00;102313.19;10570055;28;20047;-59
2021/10/14 10:22:35;;;;;;;45.95;36.55;;;;;;;13.28;100.00;102298.88;10569909;28;20055;-60
2021/10/14 10:27:37;;;;;;;46.83;35.17;;;;;;;13.35;100.00;102305.63;10587845;28;20044;-59
2021/10/14 10:32:45;;;;;;;50.42;35.45;;;;;;;13.37;100.00;102309.06;10587260;28;20372;-59
2021/10/14 10:37:49;;;;;;;42.92;32.20;;;;;;;13.02;100.00;102314.91;10569322;28;20039;-59
2021/10/14 10:43:29;;;;;;;45.63;35.88;;;;;;;13.01;100.00;102307.06;10587071;28;20059;-59
2021/10/14 10:48:43;;;;;;;43.92;36.03;;;;;;;13.08;100.00;102307.66;10584138;28;20054;-59
2021/10/14 10:53:48;;;;;;;39.03;26.85;;;;;;;13.48;100.00;102300.66;10585645;28;20059;-59
2021/10/14 10:58:50;;;;;;;42.35;30.85;;;;;;;13.65;100.00;102297.25;10586625;28;20045;-59
2021/10/14 11:04:00;;;;;;;37.03;27.10;;;;;;;13.83;100.00;102277.97;10586134;28;20044;-59
2021/10/14 11:09:05;;;;;;;39.88;27.70;;;;;;;13.98;100.00;102275.53;10567898;28;20050;-60
2021/10/14 11:14:08;;;;;;;35.45;27.38;;;;;;;13.98;100.00;102278.16;10586155;28;20047;-60
2021/10/14 11:19:17;;;;;;;34.42;25.05;;;;;;;13.89;100.00;102266.28;10585178;28;20050;-59
2021/10/14 11:24:22;;;;;;;27.60;23.27;;;;;;;14.26;100.00;102262.72;10585519;28;20054;-59
2021/10/14 11:29:28;;;;;;;28.63;23.17;;;;;;;15.47;100.00;102262.63;10585064;28;20055;-60
2021/10/14 11:34:31;;;;;;;27.90;24.45;;;;;;;16.19;100.00;102241.91;10584402;28;20060;-59
2021/10/14 11:39:33;;;;;;;28.98;24.73;;;;;;;14.96;100.00;102244.25;10581142;28;20050;-60
2021/10/14 11:44:41;;;;;;;30.90;27.50;;;;;;;14.77;100.00;102254.88;10583262;28;20044;-59
2021/10/14 11:49:43;;;;;;;30.92;27.60;;;;;;;15.69;100.00;102241.16;10583088;28;20086;-59
2021/10/14 11:54:46;;;;;;;31.00;27.70;;;;;;;15.90;94.21;102235.63;10583848;28;20403;-59
2021/10/14 11:59:48;;;;;;;32.58;28.52;;;;;;;15.26;98.85;102234.75;10584456;28;20372;-59
2021/10/14 12:04:55;;;;;;;35.42;31.27;;;;;;;15.08;100.00;102226.94;10565657;28;20125;-59
2021/10/14 12:09:58;;;;;;;43.58;32.45;;;;;;;15.46;98.37;102213.41;10583594;28;20039;-60
2021/10/14 12:15:08;;;;;;;47.05;34.65;;;;;;;15.52;98.49;102212.22;10583459;28;20050;-59
2021/10/14 12:20:21;;;;;;;36.90;29.20;;;;;;;15.27;98.56;102210.09;10583139;28;20055;-60
2021/10/14 12:25:33;;;;;;;44.90;36.28;;;;;;;15.20;100.00;102213.06;10564890;28;20047;-60
2021/10/14 12:30:40;;;;;;;51.03;38.03;;;;;;;14.92;100.00;102199.66;10582959;28;20051;-60
2021/10/14 12:35:51;;;;;;;53.42;41.10;;;;;;;15.13;99.75;102197.63;10565193;28;20061;-60
2021/10/14 12:41:15;;;;;;;49.15;37.50;;;;;;;15.82;95.74;102190.31;10582607;28;20051;-60
2021/10/14 12:51:43;;;;;;;42.90;32.15;;;;;;;15.43;99.45;102179.25;10582464;28;20125;-60
2021/10/14 12:56:48;;;;;;;46.55;32.92;;;;;;;15.48;98.01;102181.66;10582105;28;20050;-60
2021/10/14 13:01:57;;;;;;;39.97;29.30;;;;;;;15.19;98.93;102171.78;10564400;28;20567;-61
2021/10/14 13:07:00;;;;;;;38.30;27.08;;;;;;;15.24;99.49;102174.16;10564344;28;20085;-60
2021/10/14 13:12:03;;;;;;;39.00;29.05;;;;;;;15.22;99.88;102160.22;10581876;28;20417;-61
2021/10/14 13:17:06;;;;;;;33.28;25.60;;;;;;;14.95;99.85;102165.22;10584055;28;20043;-61
2021/10/14 13:22:09;;;;;;;29.85;22.70;;;;;;;15.28;97.96;102157.25;10591017;28;20058;-61
2021/10/14 13:27:11;;;;;;;28.08;22.63;;;;;;;15.51;97.29;102145.38;10590243;28;20054;-61
2021/10/14 13:32:13;;;;;;;24.27;20.30;;;;;;;15.82;95.47;102135.75;10589652;28;20498;-61
2021/10/14 13:37:16;;;;;;;26.80;19.95;;;;;;;16.09;92.41;102130.63;10590027;28;20051;-61
2021/10/14 13:42:20;;;;;;;21.95;17.38;;;;;;;15.95;92.10;102117.38;10589268;28;20050;-61
2021/10/14 13:47:22;;;;;;;25.17;17.70;;;;;;;16.07;90.39;102114.00;10571914;28;20048;-61
2021/10/14 13:52:25;;;;;;;19.45;16.50;;;;;;;16.00;91.25;102109.16;10588979;28;20052;-61
2021/10/14 13:57:39;;;;;;;17.48;15.60;;;;;;;15.65;93.49;102115.56;10588525;28;20047;-61
2021/10/14 14:02:42;;;;;;;20.02;15.52;;;;;;;15.58;95.47;102101.88;10588814;28;20047;-62
2021/10/14 14:07:44;;;;;;;19.13;16.58;;;;;;;15.44;93.19;102099.16;10588525;28;20043;-61
2021/10/14 14:12:47;;;;;;;18.08;16.20;;;;;;;15.48;94.05;102095.41;10588117;28;20044;-62
2021/10/14 14:17:49;;;;;;;18.55;15.35;;;;;;;15.68;95.43;102094.25;10587898;28;20044;-62
2021/10/14 14:22:52;;;;;;;17.20;15.38;;;;;;;15.44;93.35;102090.41;10588053;28;20418;-62
2021/10/14 14:27:54;;;;;;;16.67;14.77;;;;;;;15.60;93.83;102078.00;10587031;28;20093;-62
2021/10/14 14:32:56;;;;;;;20.92;14.18;;;;;;;15.46;93.59;102073.53;10587159;28;20380;-62
2021/10/14 14:37:59;;;;;;;17.25;13.90;;;;;;;15.51;96.05;102073.25;10587173;28;20402;-62
2021/10/14 14:43:02;;;;;;;18.20;14.88;;;;;;;15.52;93.95;102069.69;10586872;28;20071;-62
2021/10/14 14:48:04;;;;;;;16.92;13.75;;;;;;;15.28;95.67;102061.38;10586979;28;20399;-62
2021/10/14 14:53:07;;;;;;;20.25;13.90;;;;;;;15.69;95.03;102071.34;10586393;28;20047;-62
2021/10/14 14:58:10;;;;;;;14.85;11.77;;;;;;;15.37;95.02;102061.72;10587207;28;20066;-62
2021/10/14 15:03:12;;;;;;;14.55;13.05;;;;;;;15.21;95.19;102064.41;10568334;28;20055;-62
2021/10/14 15:08:15;;;;;;;21.65;15.13;;;;;;;15.21;93.66;102060.88;10586584;28;20054;-62
2021/10/14 15:13:18;;;;;;;21.50;15.40;;;;;;;15.23;93.06;102057.25;10585730;28;20514;-62
2021/10/14 15:18:20;;;;;;;23.83;14.95;;;;;;;15.02;93.86;102056.66;10585754;28;20043;-62
2021/10/14 15:23:23;;;;;;;24.67;15.27;;;;;;;15.09;94.61;102059.78;10585219;28;20051;-62
2021/10/14 15:28:25;;;;;;;20.85;14.38;;;;;;;15.14;94.15;102052.47;10567315;28;20055;-62
2021/10/14 15:33:28;;;;;;;20.33;14.40;;;;;;;15.07;95.32;102047.66;10585082;28;20044;-62
2021/10/14 15:38:30;;;;;;;21.30;15.98;;;;;;;14.93;97.88;102046.63;10584884;28;20051;-62
2021/10/14 15:43:36;;;;;;;19.42;15.30;;;;;;;14.81;96.79;102042.03;10584268;28;20044;-62
2021/10/14 15:48:39;;;;;;;18.10;14.85;;;;;;;14.60;97.22;102047.53;10549930;28;20051;-62
2021/10/14 15:53:41;;;;;;;17.85;15.52;;;;;;;14.77;96.71;102043.16;10584155;28;20413;-62
2021/10/14 15:58:45;;;;;;;16.63;14.93;;;;;;;14.63;97.10;102023.66;10584058;28;20047;-62
2021/10/14 16:03:47;;;;;;;21.23;17.27;;;;;;;14.48;98.61;102024.47;10583724;28;20047;-62
2021/10/14 16:08:49;;;;;;;19.85;17.05;;;;;;;14.47;98.95;102021.00;10584123;28;20056;-62
2021/10/14 16:13:51;;;;;;;20.25;18.05;;;;;;;14.33;100.00;102020.88;10565338;28;20064;-62
2021/10/14 16:18:54;;;;;;;22.90;17.42;;;;;;;14.25;100.00;102021.28;10583738;28;20044;-62
2021/10/14 16:23:56;;;;;;;21.23;18.27;;;;;;;14.09;100.00;102021.25;10583037;28;20051;-62
2021/10/14 16:29:00;;;;;;;21.63;19.40;;;;;;;14.11;100.00;102019.38;10583350;28;20110;-62
2021/10/14 16:39:24;;;;;;;21.05;17.33;;;;;;;14.24;100.00;102000.28;10582695;28;20047;-62
2021/10/14 16:44:26;;;;;;;20.33;16.45;;;;;;;14.00;100.00;102000.66;10583006;28;20047;-62
2021/10/14 16:49:29;;;;;;;21.27;16.65;;;;;;;13.90;100.00;102004.72;10582367;28;20043;-62
2021/10/14 16:54:32;;;;;;;19.00;17.00;;;;;;;13.83;100.00;102004.19;10581518;28;20052;-62
2021/10/14 16:59:35;;;;;;;21.27;19.08;;;;;;;13.70;100.00;101998.72;10581758;28;20059;-62
2021/10/14 17:04:37;;;;;;;17.65;15.80;;;;;;;13.71;100.00;102005.66;10581836;28;20050;-62
2021/10/14 17:09:41;;;;;;;19.17;17.08;;;;;;;13.71;100.00;101996.94;10581587;28;20380;-62
2021/10/14 17:14:45;;;;;;;24.50;19.85;;;;;;;13.80;100.00;101998.22;10581724;28;20399;-62
2021/10/14 17:41:06;;;;;;;17.42;13.63;;;;;;;13.66;100.00;101984.00;10581470;28;20048;-62
2021/10/14 17:46:21;;;;;;;21.25;14.13;;;;;;;13.53;100.00;101982.91;10563335;28;20047;-62
2021/10/14 17:51:23;;;;;;;17.80;13.20;;;;;;;13.45;100.00;101971.94;10580968;28;20052;-62
2021/10/14 17:56:26;;;;;;;18.75;13.55;;;;;;;13.24;100.00;101971.22;10581401;28;20061;-62
2021/10/14 18:01:30;;;;;;;16.15;13.35;;;;;;;13.35;100.00;101969.78;10580367;28;20054;-62
2021/10/14 18:38:28;;;;;;;20.73;13.10;;;;;;;12.61;100.00;101933.94;10587328;28;20480;-62
2021/10/14 18:43:31;;;;;;;19.48;13.25;;;;;;;12.59;100.00;101933.16;10587110;28;20085;-62
2021/10/14 18:48:38;;;;;;;17.27;13.07;;;;;;;12.41;100.00;101937.50;10586883;28;20052;-62
2021/10/14 18:53:40;;;;;;;14.77;11.95;;;;;;;12.55;100.00;101925.50;10586608;28;20051;-62
2021/10/14 18:58:48;;;;;;;16.90;12.82;;;;;;;12.44;100.00;101918.97;10587351;28;20043;-62
2021/10/14 19:04:04;;;;;;;19.83;14.57;;;;;;;12.47;100.00;101925.84;10569156;28;20399;-62
2021/10/14 19:14:17;;;;;;;25.25;16.00;;;;;;;12.53;100.00;101922.94;10585059;28;20403;-62
2021/10/14 20:23:14;;;;;;;15.75;11.07;;;;;;;12.30;100.00;101865.41;10583132;28;20043;-62
2021/10/14 20:28:17;;;;;;;17.23;11.07;;;;;;;12.51;100.00;101861.75;10582317;28;20044;-62
2021/10/14 20:33:23;;;;;;;16.27;10.18;;;;;;;12.36;100.00;101873.84;10582612;28;20058;-62
2021/10/14 20:38:29;;;;;;;17.15;9.73;;;;;;;12.37;100.00;101862.44;10582522;28;20131;-62
2021/10/14 20:43:32;;;;;;;14.25;9.38;;;;;;;12.37;100.00;101858.94;10582429;28;20134;-62
2021/10/14 20:48:37;;;;;;;15.70;8.88;;;;;;;12.25;99.47;101852.50;10564129;28;20056;-62
2021/10/14 20:53:45;;;;;;;13.95;8.68;;;;;;;12.34;100.00;101853.81;10565240;28;20047;-62
2021/10/14 21:04:08;;;;;;;13.90;8.05;;;;;;;12.34;98.75;101841.56;10581763;28;20047;-62
2021/10/14 21:09:10;;;;;;;14.73;8.35;;;;;;;12.14;100.00;101836.38;10563782;28;20047;-62
2021/10/14 21:14:23;;;;;;;9.52;7.25;;;;;;;12.50;98.68;101835.56;10566092;28;20043;-62
2021/10/14 21:19:26;;;;;;;12.82;7.07;;;;;;;12.44;97.34;101834.09;10582164;28;20048;-62
2021/10/14 21:24:28;;;;;;;9.80;6.38;;;;;;;12.43;96.38;101824.50;10581973;28;20487;-62
2021/10/14 21:29:50;;;;;;;9.73;7.53;;;;;;;12.37;96.86;101816.91;10580997;28;20069;-62
2021/10/14 21:40:13;;;;;;;10.13;6.97;;;;;;;12.30;98.50;101807.63;10587415;28;20044;-62
2021/10/14 21:45:16;;;;;;;9.57;6.07;;;;;;;12.37;97.71;101793.28;10589633;28;20047;-62
2021/10/14 21:50:18;;;;;;;10.48;6.13;;;;;;;12.32;97.37;101782.16;10589112;28;20061;-62
2021/10/14 21:55:24;;;;;;;11.60;6.32;;;;;;;12.25;96.45;101781.59;10589155;28;20052;-62
2021/10/14 22:00:26;;;;;;;11.93;6.70;;;;;;;12.39;97.67;101787.03;10588773;28;20056;-62
2021/10/14 22:05:29;;;;;;;8.95;6.35;;;;;;;12.34;97.56;101770.66;10588448;28;20548;-62
2021/10/14 22:10:33;;;;;;;7.75;6.28;;;;;;;12.32;96.74;101764.59;10588350;28;20511;-62
2021/10/14 22:15:36;;;;;;;11.25;7.35;;;;;;;12.39;98.36;101758.16;10588134;28;20059;-62
2021/10/14 22:20:39;;;;;;;10.88;6.22;;;;;;;12.45;97.48;101749.94;10587879;28;20519;-62
2021/10/14 22:25:42;;;;;;;8.45;5.55;;;;;;;12.52;96.05;101741.75;10587870;28;20052;-62
2021/10/14 22:30:45;;;;;;;10.02;6.13;;;;;;;12.38;96.22;101742.47;10588100;28;20058;-62
2021/10/14 22:35:47;;;;;;;11.30;6.13;;;;;;;12.36;96.23;101734.66;10587240;28;20437;-62
2021/10/14 22:40:49;;;;;;;9.77;6.07;;;;;;;12.31;94.74;101731.41;10586971;28;20479;-62
2021/10/14 22:45:52;;;;;;;11.13;6.32;;;;;;;12.44;96.16;101719.38;10586919;28;20161;-62
2021/10/14 22:50:54;;;;;;;8.15;6.40;;;;;;;12.21;95.54;101723.13;10567894;28;20452;-62
2021/10/14 22:55:57;;;;;;;7.82;5.45;;;;;;;12.43;95.97;101703.69;10568570;28;20509;-62
2021/10/14 23:00:59;;;;;;;10.27;6.03;;;;;;;12.29;95.28;101693.91;10586484;28;20040;-62
2021/10/14 23:06:05;;;;;;;7.95;5.60;;;;;;;12.35;94.81;101690.09;10586075;28;20071;-62
2021/10/14 23:11:07;;;;;;;12.07;7.03;;;;;;;12.21;95.59;101685.53;10585951;28;20479;-62
2021/10/14 23:16:10;;;;;;;12.65;5.85;;;;;;;12.33;94.80;101681.44;10586574;28;20054;-62
2021/10/14 23:21:15;;;;;;;7.43;5.78;;;;;;;12.17;94.94;101674.34;10585588;28;20056;-62
2021/10/14 23:26:18;;;;;;;11.85;6.43;;;;;;;12.24;93.97;101661.78;10585435;28;20487;-62
2021/10/14 23:31:20;;;;;;;6.85;5.70;;;;;;;12.22;94.47;101653.97;10585148;28;20039;-62
2021/10/14 23:36:23;;;;;;;8.98;5.55;;;;;;;12.17;94.86;101655.97;10585648;28;20083;-62
2021/10/14 23:41:27;;;;;;;8.35;5.38;;;;;;;12.32;94.48;101650.84;10585065;28;20043;-62
2021/10/14 23:46:30;;;;;;;6.90;4.90;;;;;;;12.17;93.92;101632.34;10584527;28;20517;-62
2021/10/14 23:51:32;;;;;;;6.07;5.40;;;;;;;12.11;94.21;101627.41;10584589;28;20059;-62
2021/10/14 23:56:35;;;;;;;8.18;5.10;;;;;;;12.12;93.86;101618.63;10583884;28;20046;-62
